Update 04.10.19: Almanach/History: Die WU Grafiken funktionieren wieder!!
Besuchen Sie den Menüpunkt "Almanach / History" WU-Grafiken um Wetterdaten über die Jahre zu vergleichen!
Die Daten stammen von meiner Wetterstation und wurden von Weatherunderground aufgezeichnet.

Rindlberg West Mehr Informationen Rindlberg West


Stuetzi - Rindlberg Ost Mehr Informationen Stuetzi - Rindlberg Ost


Regenradar Mehr Informationen rain snow radar


Sie finden meine Wetter-Infos auch auf:

Weather Underground

AWEKAS



METAR-Meldungen aus der Umgebung

   
LOWL - Linz
Aktualisierung: 15-11-2019 18:20
leicht bewölkt  
leicht bewölkt  
   Wind: Osten 27.8 km/h
Wind: Osten 27.8 km/h
Temperatur: 12°C
Taupunkt: 6°C
Luftfeuchte: 67%
Luftdruck: 1002 hPa
Wolken: leicht bewölkt
Sichtbarkeit: Mehr als 10 km
Bewölkung: leicht bewölkt 8000 ft
LOWL 151720Z AUTO 10015KT 9999 FEW080 12/06 Q1002 NOSIG
LOWW - Vienna
Aktualisierung: 15-11-2019 18:20
Stark bewölkt  
Stark bewölkt  
   Wind: SO 22.2 km/h
Wind: SO 22.2 km/h
Temperatur: 9°C
Gefühlt: 6°C
Taupunkt: 7°C
Luftfeuchte: 87%
Luftdruck: 1009 hPa
Wolken: Stark bewölkt
Sichtbarkeit: 8 km
Bewölkung: leicht bewölkt 800 ft,
Teilweise bewölkt 1100 ft,
Stark bewölkt 1600 ft
LOWW 151720Z 13012KT 8000 FEW008 SCT011 BKN016 09/07 Q1009 TEMPO BKN011
 

Script entwickelt von  Saratoga-weather.org Angepasst für das Template von  Weerstation Leuven